createdAt,value
2024-03-07T00:00:18.320Z,100.00
2024-03-07T00:02:50.029Z,100.00
2024-03-07T00:05:18.102Z,100.00
2024-03-07T00:07:44.869Z,100.00
2024-03-07T00:10:12.279Z,100.00
2024-03-07T00:12:41.794Z,100.00
2024-03-07T00:15:10.005Z,100.00
2024-03-07T00:17:36.601Z,100.00
2024-03-07T00:20:05.509Z,100.00
2024-03-07T00:22:32.466Z,100.00
2024-03-07T00:24:58.964Z,100.00
2024-03-07T00:27:27.233Z,100.00
2024-03-07T00:29:54.415Z,100.00
2024-03-07T00:32:21.455Z,100.00
2024-03-07T00:34:48.609Z,100.00
2024-03-07T00:37:16.116Z,100.00
2024-03-07T00:39:42.992Z,100.00
2024-03-07T00:42:10.274Z,100.00
2024-03-07T00:44:37.041Z,100.00
2024-03-07T00:47:04.102Z,100.00
2024-03-07T00:49:31.401Z,100.00
2024-03-07T00:52:00.249Z,100.00
2024-03-07T00:54:27.009Z,100.00
2024-03-07T00:56:54.178Z,100.00
2024-03-07T00:59:21.048Z,100.00
2024-03-07T01:01:47.672Z,100.00
2024-03-07T01:04:14.172Z,100.00
2024-03-07T01:06:42.152Z,100.00
2024-03-07T01:09:15.340Z,100.00
2024-03-07T01:11:44.697Z,100.00
2024-03-07T01:14:12.510Z,100.00
2024-03-07T01:16:39.028Z,100.00
2024-03-07T01:19:09.614Z,100.00
2024-03-07T01:21:38.714Z,100.00
2024-03-07T01:24:06.551Z,100.00
2024-03-07T01:26:34.765Z,100.00
2024-03-07T01:29:01.472Z,100.00
2024-03-07T01:31:28.048Z,100.00
2024-03-07T01:33:55.740Z,100.00
2024-03-07T01:36:22.744Z,100.00
2024-03-07T01:38:49.366Z,100.00
2024-03-07T01:41:15.945Z,100.00
2024-03-07T01:43:45.440Z,100.00
2024-03-07T01:46:12.321Z,100.00
2024-03-07T01:48:39.569Z,100.00
2024-03-07T01:51:06.673Z,100.00
2024-03-07T01:53:34.717Z,100.00
2024-03-07T01:56:03.543Z,100.00
2024-03-07T01:58:31.883Z,100.00
2024-03-07T02:00:59.396Z,100.00
2024-03-07T02:03:26.189Z,100.00
2024-03-07T02:05:52.863Z,100.00
2024-03-07T02:08:20.803Z,100.00
2024-03-07T02:10:47.649Z,100.00
2024-03-07T02:13:14.213Z,100.00
2024-03-07T02:15:40.653Z,100.00
2024-03-07T02:18:07.923Z,100.00
2024-03-07T02:20:34.549Z,100.00
2024-03-07T02:23:01.070Z,100.00
2024-03-07T02:25:28.515Z,100.00
2024-03-07T02:27:54.995Z,100.00
2024-03-07T02:30:21.410Z,100.00
2024-03-07T02:32:53.137Z,100.00
2024-03-07T02:35:20.161Z,100.00
2024-03-07T02:37:47.254Z,100.00
2024-03-07T02:40:14.993Z,100.00
2024-03-07T02:42:41.462Z,100.00
2024-03-07T02:45:08.370Z,100.00
2024-03-07T02:47:35.003Z,100.00
2024-03-07T02:50:01.578Z,100.00
2024-03-07T02:52:28.142Z,100.00
2024-03-07T02:54:54.699Z,100.00
2024-03-07T02:57:21.582Z,100.00
2024-03-07T02:59:48.166Z,100.00
2024-03-07T03:02:17.882Z,100.00
2024-03-07T03:04:44.384Z,100.00
2024-03-07T03:07:11.184Z,100.00
2024-03-07T03:09:40.955Z,100.00
2024-03-07T03:12:07.776Z,100.00
2024-03-07T03:14:34.339Z,100.00
2024-03-07T03:17:01.162Z,100.00
2024-03-07T03:19:27.654Z,100.00
2024-03-07T03:21:54.100Z,100.00
2024-03-07T03:24:21.330Z,100.00
2024-03-07T03:26:47.855Z,100.00
2024-03-07T03:29:15.147Z,100.00
2024-03-07T03:31:41.600Z,100.00
2024-03-07T03:34:10.807Z,100.00
2024-03-07T03:36:37.261Z,100.00
2024-03-07T03:39:03.786Z,100.00
2024-03-07T03:41:31.292Z,100.00
2024-03-07T03:43:57.814Z,100.00
2024-03-07T03:46:24.668Z,100.00
2024-03-07T03:48:51.972Z,100.00
2024-03-07T03:51:18.481Z,100.00
2024-03-07T03:53:45.269Z,100.00
2024-03-07T03:56:13.349Z,100.00
2024-03-07T03:58:42.839Z,100.00
2024-03-07T04:01:14.060Z,100.00
2024-03-07T04:03:40.727Z,100.00
2024-03-07T04:06:08.161Z,100.00
2024-03-07T04:08:37.752Z,100.00
2024-03-07T04:11:05.701Z,100.00
2024-03-07T04:13:32.839Z,100.00
2024-03-07T04:16:00.211Z,100.00
2024-03-07T04:18:27.674Z,100.00
2024-03-07T04:20:55.386Z,100.00
2024-03-07T04:23:22.060Z,100.00
2024-03-07T04:25:48.566Z,100.00
2024-03-07T04:28:15.042Z,100.00
2024-03-07T04:30:41.525Z,100.00
2024-03-07T04:33:08.179Z,100.00
2024-03-07T04:35:34.916Z,100.00
2024-03-07T04:38:01.376Z,100.00
2024-03-07T04:40:27.788Z,100.00
2024-03-07T04:42:54.285Z,100.00
2024-03-07T04:45:22.295Z,100.00
2024-03-07T04:47:49.730Z,100.00
2024-03-07T04:50:19.429Z,100.00
2024-03-07T04:52:47.528Z,100.00
2024-03-07T04:55:14.499Z,100.00
2024-03-07T04:57:42.398Z,100.00
2024-03-07T05:00:18.236Z,100.00
2024-03-07T05:02:47.677Z,100.00
2024-03-07T05:05:15.193Z,100.00
2024-03-07T05:07:42.591Z,100.00
2024-03-07T05:10:09.920Z,100.00
2024-03-07T05:12:37.766Z,100.00
2024-03-07T05:15:06.060Z,100.00
2024-03-07T05:17:35.646Z,100.00
2024-03-07T05:20:02.579Z,100.00
2024-03-07T05:22:31.356Z,100.00
2024-03-07T05:24:59.617Z,100.00
2024-03-07T05:27:26.130Z,100.00
2024-03-07T05:29:52.681Z,100.00
2024-03-07T05:32:24.142Z,100.00
2024-03-07T05:34:51.027Z,100.00
2024-03-07T05:37:17.573Z,100.00
2024-03-07T05:39:44.037Z,100.00
2024-03-07T05:42:14.961Z,100.00
2024-03-07T05:44:47.483Z,100.00
2024-03-07T05:47:18.037Z,100.00
2024-03-07T05:49:44.898Z,100.00
2024-03-07T05:52:11.379Z,100.00
2024-03-07T05:54:37.899Z,100.00
2024-03-07T05:57:06.790Z,100.00
2024-03-07T05:59:33.770Z,100.00
2024-03-07T06:02:00.639Z,100.00
2024-03-07T06:04:27.191Z,100.00
2024-03-07T06:06:53.828Z,100.00
2024-03-07T06:09:23.440Z,100.00
2024-03-07T06:11:51.000Z,100.00
2024-03-07T06:14:18.331Z,100.00
2024-03-07T06:16:45.034Z,100.00
2024-03-07T06:19:12.451Z,100.00
2024-03-07T06:21:40.908Z,100.00
2024-03-07T06:24:08.658Z,100.00
2024-03-07T06:26:45.934Z,100.00
2024-03-07T06:29:13.828Z,100.00
2024-03-07T06:31:41.660Z,100.00
2024-03-07T06:34:09.393Z,100.00
2024-03-07T06:36:36.623Z,100.00
2024-03-07T06:39:06.890Z,100.00
2024-03-07T06:41:34.323Z,100.00
2024-03-07T06:44:01.538Z,100.00
2024-03-07T06:46:28.202Z,100.00
2024-03-07T06:48:55.089Z,100.00
2024-03-07T06:51:21.711Z,100.00
2024-03-07T06:53:48.313Z,100.00
2024-03-07T06:56:15.856Z,100.00
2024-03-07T06:58:43.360Z,100.00
2024-03-07T07:01:13.325Z,100.00
2024-03-07T07:03:40.238Z,100.00
2024-03-07T07:06:07.176Z,100.00
2024-03-07T07:08:34.246Z,100.00
2024-03-07T07:11:00.825Z,100.00
2024-03-07T07:13:27.393Z,100.00
2024-03-07T07:15:54.648Z,100.00
2024-03-07T07:18:22.738Z,100.00
2024-03-07T07:20:50.342Z,100.00
2024-03-07T07:23:16.890Z,100.00
2024-03-07T07:25:43.363Z,100.00
2024-03-07T07:28:11.004Z,100.00
2024-03-07T07:30:37.758Z,100.00
2024-03-07T07:33:04.834Z,100.00
2024-03-07T07:35:32.329Z,100.00
2024-03-07T07:37:59.041Z,100.00
2024-03-07T07:40:28.181Z,100.00
2024-03-07T07:42:55.280Z,100.00
2024-03-07T07:45:23.482Z,100.00
2024-03-07T07:47:54.663Z,100.00
2024-03-07T07:50:23.283Z,100.00
2024-03-07T07:52:57.702Z,100.00
2024-03-07T07:55:26.631Z,100.00
2024-03-07T07:58:05.097Z,100.00
2024-03-07T08:00:32.386Z,100.00
2024-03-07T08:03:02.237Z,100.00
2024-03-07T08:05:34.249Z,100.00
2024-03-07T08:08:07.603Z,99.31
2024-03-07T08:10:36.212Z,97.76
2024-03-07T08:13:04.130Z,96.64
2024-03-07T08:15:31.880Z,97.70
2024-03-07T08:17:59.554Z,96.56
2024-03-07T08:20:28.022Z,96.11
2024-03-07T08:22:56.454Z,95.48
2024-03-07T08:25:28.210Z,95.07
2024-03-07T08:27:57.345Z,93.77
2024-03-07T08:30:24.278Z,92.10
2024-03-07T08:32:53.360Z,91.16
2024-03-07T08:35:20.512Z,91.94
2024-03-07T08:37:54.244Z,92.28
2024-03-07T08:40:28.551Z,90.74
2024-03-07T08:42:56.844Z,88.75
2024-03-07T08:45:24.139Z,91.13
2024-03-07T08:47:52.509Z,94.70
2024-03-07T08:50:19.704Z,96.80
2024-03-07T08:52:47.265Z,98.58
2024-03-07T08:55:15.505Z,100.00
2024-03-07T08:57:43.149Z,100.00
2024-03-07T09:00:12.260Z,100.00
2024-03-07T09:02:39.714Z,100.00
2024-03-07T09:05:06.977Z,99.64
2024-03-07T09:07:33.840Z,100.00
2024-03-07T09:10:00.367Z,99.24
2024-03-07T09:12:27.384Z,100.00
2024-03-07T09:14:54.488Z,98.83
2024-03-07T09:17:21.708Z,98.70
2024-03-07T09:19:48.211Z,97.57
2024-03-07T09:22:14.673Z,98.07
2024-03-07T09:24:41.183Z,97.64
2024-03-07T09:27:07.839Z,96.65
2024-03-07T09:29:34.399Z,94.99
2024-03-07T09:32:00.862Z,94.20
2024-03-07T09:34:27.441Z,95.05
2024-03-07T09:36:53.925Z,94.40
2024-03-07T09:39:20.475Z,94.36
2024-03-07T09:41:47.019Z,93.16
2024-03-07T09:44:18.697Z,93.21
2024-03-07T09:46:47.448Z,93.43
2024-03-07T09:49:15.016Z,91.95
2024-03-07T09:51:41.534Z,93.11
2024-03-07T09:54:09.218Z,91.75
2024-03-07T09:56:39.056Z,92.53
2024-03-07T09:59:09.099Z,90.76
2024-03-07T10:01:37.337Z,88.98
2024-03-07T10:04:12.726Z,89.56
2024-03-07T10:06:40.620Z,87.65
2024-03-07T10:09:08.566Z,88.06
2024-03-07T10:11:35.915Z,87.20
2024-03-07T10:14:04.176Z,85.59
2024-03-07T10:16:30.649Z,86.90
2024-03-07T10:18:57.192Z,85.20
2024-03-07T10:21:25.178Z,82.68
2024-03-07T10:23:54.303Z,81.05
2024-03-07T10:26:22.398Z,80.61
2024-03-07T10:28:49.249Z,78.55
2024-03-07T10:31:29.555Z,78.11
2024-03-07T10:34:00.489Z,77.38
2024-03-07T10:36:26.950Z,76.38
2024-03-07T10:38:56.436Z,76.91
2024-03-07T10:41:28.732Z,78.98
2024-03-07T10:43:59.236Z,76.60
2024-03-07T10:46:27.644Z,77.77
2024-03-07T10:48:57.765Z,77.61
2024-03-07T10:51:32.268Z,77.51
2024-03-07T10:54:23.280Z,78.43
2024-03-07T10:57:09.733Z,80.54
2024-03-07T10:59:43.040Z,79.66
2024-03-07T11:02:28.440Z,78.66
2024-03-07T11:04:57.067Z,78.53
2024-03-07T11:07:24.734Z,80.66
2024-03-07T11:09:53.322Z,78.79
2024-03-07T11:12:25.375Z,81.02
2024-03-07T11:14:53.410Z,77.88
2024-03-07T11:17:23.230Z,76.21
2024-03-07T11:19:50.864Z,77.92
2024-03-07T11:22:30.880Z,75.81
2024-03-07T11:25:02.716Z,75.79
2024-03-07T11:27:29.273Z,77.84
2024-03-07T11:29:57.571Z,77.47
2024-03-07T11:32:25.040Z,78.38
2024-03-07T11:34:54.940Z,79.32
2024-03-07T11:37:42.138Z,80.74
2024-03-07T11:40:09.579Z,77.50
2024-03-07T11:42:37.043Z,75.83
2024-03-07T11:45:07.563Z,77.26
2024-03-07T11:47:40.601Z,74.98
2024-03-07T11:50:12.527Z,76.01
2024-03-07T11:52:45.150Z,76.65
2024-03-07T11:55:12.097Z,75.87
2024-03-07T11:57:39.746Z,75.47
2024-03-07T12:00:12.483Z,76.19
2024-03-07T12:02:42.168Z,75.28
2024-03-07T12:05:09.163Z,76.09
2024-03-07T12:07:36.025Z,76.25
2024-03-07T12:10:06.800Z,77.46
2024-03-07T12:12:34.199Z,74.04
2024-03-07T12:15:03.147Z,72.15
2024-03-07T12:17:31.361Z,73.64
2024-03-07T12:20:02.682Z,73.65
2024-03-07T12:22:31.680Z,74.24
2024-03-07T12:25:09.351Z,75.08
2024-03-07T12:27:35.876Z,75.27
2024-03-07T12:30:17.359Z,75.19
2024-03-07T12:32:50.848Z,73.50
2024-03-07T12:35:17.807Z,73.98
2024-03-07T12:37:44.445Z,74.98
2024-03-07T12:40:20.531Z,76.67
2024-03-07T12:42:56.100Z,74.95
2024-03-07T12:45:22.786Z,74.89
2024-03-07T12:47:53.890Z,74.76
2024-03-07T12:50:24.435Z,76.62
2024-03-07T12:52:51.834Z,74.14
2024-03-07T12:55:24.658Z,75.04
2024-03-07T12:57:51.319Z,74.87
2024-03-07T13:00:21.840Z,75.89
2024-03-07T13:02:49.390Z,75.98
2024-03-07T13:05:22.295Z,75.26
2024-03-07T13:07:49.735Z,74.24
2024-03-07T13:10:17.269Z,74.75
2024-03-07T13:12:46.464Z,74.18
2024-03-07T13:15:13.685Z,74.33
2024-03-07T13:17:41.211Z,74.88
2024-03-07T13:20:12.904Z,77.10
2024-03-07T13:22:43.951Z,77.85
2024-03-07T13:25:16.986Z,77.69
2024-03-07T13:28:14.432Z,77.33
2024-03-07T13:30:49.535Z,77.25
2024-03-07T13:33:16.582Z,79.02
2024-03-07T13:35:43.231Z,80.14
2024-03-07T13:38:10.676Z,79.18
2024-03-07T13:40:40.329Z,80.90
2024-03-07T13:43:08.069Z,80.72
2024-03-07T13:45:40.098Z,80.26
2024-03-07T13:48:07.850Z,82.50
2024-03-07T13:50:47.731Z,82.54
2024-03-07T13:53:22.468Z,82.36
2024-03-07T13:55:54.680Z,83.10
2024-03-07T13:58:47.094Z,83.45
2024-03-07T14:01:37.527Z,83.52
2024-03-07T14:04:41.754Z,82.21
2024-03-07T14:07:30.950Z,82.80
2024-03-07T14:10:25.888Z,82.36
2024-03-07T14:13:15.100Z,83.07
2024-03-07T14:16:21.676Z,86.34
2024-03-07T14:19:22.352Z,88.44
2024-03-07T14:22:22.730Z,88.96
2024-03-07T14:25:19.549Z,90.61
2024-03-07T14:28:20.266Z,90.44
2024-03-07T14:30:59.826Z,90.31
2024-03-07T14:33:48.565Z,89.77
2024-03-07T14:36:17.028Z,88.27
2024-03-07T14:38:59.024Z,87.31
2024-03-07T14:41:47.996Z,87.36
2024-03-07T14:44:19.261Z,89.34
2024-03-07T14:46:48.388Z,91.29
2024-03-07T14:49:17.529Z,91.90
2024-03-07T14:51:51.819Z,92.07
2024-03-07T14:54:26.232Z,90.45
2024-03-07T14:56:53.660Z,90.63
2024-03-07T14:59:22.064Z,91.21
2024-03-07T15:01:48.993Z,90.40
2024-03-07T15:04:16.268Z,91.15
2024-03-07T15:06:43.723Z,92.92
2024-03-07T15:09:10.784Z,93.56
2024-03-07T15:11:41.537Z,94.45
2024-03-07T15:14:11.898Z,94.14
2024-03-07T15:16:39.973Z,94.73
2024-03-07T15:19:13.566Z,94.86
2024-03-07T15:21:40.772Z,94.39
2024-03-07T15:24:07.600Z,95.29
2024-03-07T15:26:34.995Z,95.41
2024-03-07T15:29:01.961Z,96.42
2024-03-07T15:31:28.899Z,97.82
2024-03-07T15:33:55.797Z,98.65
2024-03-07T15:36:22.976Z,98.35
2024-03-07T15:38:49.921Z,99.30
2024-03-07T15:41:16.512Z,98.41
2024-03-07T15:43:46.186Z,99.07
2024-03-07T15:46:13.848Z,99.01
2024-03-07T15:48:41.485Z,99.66
2024-03-07T15:51:12.947Z,100.00
2024-03-07T15:53:41.729Z,100.00
2024-03-07T15:56:08.580Z,100.00
2024-03-07T15:58:35.384Z,100.00
2024-03-07T16:01:03.099Z,100.00
2024-03-07T16:03:29.779Z,100.00
2024-03-07T16:05:57.886Z,100.00
2024-03-07T16:08:24.989Z,100.00
2024-03-07T16:10:52.363Z,100.00
2024-03-07T16:13:18.899Z,100.00
2024-03-07T16:15:46.436Z,100.00
2024-03-07T16:18:15.466Z,100.00
2024-03-07T16:20:42.630Z,100.00
2024-03-07T16:23:10.017Z,100.00
2024-03-07T16:25:40.509Z,100.00
2024-03-07T16:28:08.756Z,100.00
2024-03-07T16:30:36.712Z,100.00
2024-03-07T16:33:04.282Z,100.00
2024-03-07T16:35:34.746Z,100.00
2024-03-07T16:38:02.107Z,100.00
2024-03-07T16:40:30.067Z,100.00
2024-03-07T16:43:01.759Z,100.00
2024-03-07T16:45:31.358Z,100.00
2024-03-07T16:48:00.914Z,100.00
2024-03-07T16:50:30.496Z,100.00
2024-03-07T16:53:08.641Z,100.00
2024-03-07T16:55:37.905Z,100.00
2024-03-07T17:00:34.487Z,100.00
2024-03-07T17:03:06.713Z,100.00
2024-03-07T17:05:35.500Z,100.00
2024-03-07T17:08:05.628Z,100.00
2024-03-07T17:10:36.060Z,100.00
2024-03-07T17:13:08.144Z,100.00
2024-03-07T17:15:34.693Z,100.00
2024-03-07T17:18:01.583Z,100.00
2024-03-07T17:20:29.821Z,100.00
2024-03-07T17:22:56.751Z,100.00
2024-03-07T17:25:25.408Z,100.00
2024-03-07T17:27:53.225Z,100.00
2024-03-07T17:30:32.458Z,100.00
2024-03-07T17:33:00.190Z,100.00
2024-03-07T17:35:29.992Z,100.00
2024-03-07T17:37:57.591Z,100.00
2024-03-07T17:40:27.664Z,100.00
2024-03-07T17:42:55.479Z,100.00
2024-03-07T17:45:29.010Z,100.00
2024-03-07T17:47:59.203Z,100.00
2024-03-07T17:50:31.492Z,100.00
2024-03-07T17:53:11.342Z,100.00
2024-03-07T17:55:42.437Z,100.00
2024-03-07T17:58:10.148Z,100.00
2024-03-07T18:00:37.328Z,100.00
2024-03-07T18:03:06.215Z,100.00
2024-03-07T18:05:37.826Z,100.00
2024-03-07T18:08:21.329Z,100.00
2024-03-07T18:10:56.654Z,100.00
2024-03-07T18:13:23.285Z,100.00
2024-03-07T18:15:50.286Z,100.00
2024-03-07T18:18:17.644Z,100.00
2024-03-07T18:20:46.246Z,100.00
2024-03-07T18:23:14.694Z,100.00
2024-03-07T18:25:41.951Z,100.00
2024-03-07T18:28:08.780Z,100.00
2024-03-07T18:30:35.461Z,100.00
2024-03-07T18:33:06.283Z,100.00
2024-03-07T18:35:37.503Z,100.00
2024-03-07T18:38:07.399Z,100.00
2024-03-07T18:40:34.962Z,100.00
2024-03-07T18:43:08.977Z,100.00
2024-03-07T18:45:37.357Z,100.00
2024-03-07T18:48:09.230Z,100.00
2024-03-07T18:50:46.361Z,100.00
2024-03-07T18:53:15.571Z,100.00
2024-03-07T18:55:47.174Z,100.00
2024-03-07T18:58:14.052Z,100.00
2024-03-07T19:00:44.931Z,100.00
2024-03-07T19:03:15.187Z,100.00
2024-03-07T19:05:49.849Z,100.00
2024-03-07T19:08:17.052Z,100.00
2024-03-07T19:10:45.002Z,100.00
2024-03-07T19:13:11.929Z,100.00
2024-03-07T19:15:38.610Z,100.00
2024-03-07T19:18:10.403Z,100.00
2024-03-07T19:20:40.304Z,100.00
2024-03-07T19:23:09.748Z,100.00
2024-03-07T19:25:36.731Z,100.00
2024-03-07T19:28:03.412Z,100.00
2024-03-07T19:30:29.965Z,100.00
2024-03-07T19:32:58.314Z,100.00
2024-03-07T19:35:26.417Z,100.00
2024-03-07T19:37:52.912Z,100.00
2024-03-07T19:40:22.544Z,100.00
2024-03-07T19:42:52.736Z,100.00
2024-03-07T19:45:21.147Z,100.00
2024-03-07T19:47:48.837Z,100.00
2024-03-07T19:50:19.204Z,100.00
2024-03-07T19:52:50.420Z,100.00
2024-03-07T19:55:19.972Z,100.00
2024-03-07T19:57:49.270Z,100.00
2024-03-07T20:00:16.943Z,100.00
2024-03-07T20:02:44.880Z,100.00
2024-03-07T20:05:17.314Z,100.00
2024-03-07T20:07:45.477Z,100.00
2024-03-07T20:10:12.017Z,100.00
2024-03-07T20:12:44.705Z,100.00
2024-03-07T20:15:12.739Z,100.00
2024-03-07T20:17:44.526Z,100.00
2024-03-07T20:20:17.743Z,100.00
2024-03-07T20:22:45.967Z,100.00
2024-03-07T20:25:13.839Z,100.00
2024-03-07T20:27:42.009Z,100.00
2024-03-07T20:30:09.482Z,100.00
2024-03-07T20:32:38.787Z,100.00
2024-03-07T20:35:09.096Z,100.00
2024-03-07T20:37:42.145Z,100.00
2024-03-07T20:40:10.674Z,100.00
2024-03-07T20:42:38.861Z,100.00
2024-03-07T20:45:09.085Z,100.00
2024-03-07T20:47:37.402Z,100.00
2024-03-07T20:50:10.541Z,100.00
2024-03-07T20:52:41.605Z,100.00
2024-03-07T20:55:09.019Z,100.00
2024-03-07T20:57:35.613Z,100.00
2024-03-07T21:00:06.145Z,100.00
2024-03-07T21:02:33.656Z,100.00
2024-03-07T21:05:00.872Z,100.00
2024-03-07T21:07:27.349Z,100.00
2024-03-07T21:09:53.810Z,100.00
2024-03-07T21:12:20.507Z,100.00
2024-03-07T21:14:46.999Z,100.00
2024-03-07T21:17:14.954Z,100.00
2024-03-07T21:19:41.418Z,100.00
2024-03-07T21:22:07.836Z,100.00
2024-03-07T21:24:34.255Z,100.00
2024-03-07T21:27:02.420Z,100.00
2024-03-07T21:29:30.716Z,100.00
2024-03-07T21:31:58.040Z,100.00
2024-03-07T21:34:24.506Z,100.00
2024-03-07T21:36:50.983Z,100.00
2024-03-07T21:39:17.434Z,100.00
2024-03-07T21:41:43.878Z,100.00
2024-03-07T21:44:10.407Z,100.00
2024-03-07T21:46:41.082Z,100.00
2024-03-07T21:49:08.507Z,100.00
2024-03-07T21:51:36.510Z,100.00
2024-03-07T21:54:03.034Z,100.00
2024-03-07T21:56:30.089Z,100.00
2024-03-07T21:58:58.885Z,100.00
2024-03-07T22:01:39.557Z,100.00
2024-03-07T22:04:06.533Z,100.00
2024-03-07T22:06:33.817Z,100.00
2024-03-07T22:09:01.601Z,100.00
2024-03-07T22:11:28.547Z,100.00
2024-03-07T22:13:55.134Z,100.00
2024-03-07T22:16:21.620Z,100.00
2024-03-07T22:18:48.295Z,100.00
2024-03-07T22:21:15.085Z,100.00
2024-03-07T22:23:41.886Z,100.00
2024-03-07T22:26:13.130Z,100.00
2024-03-07T22:28:39.828Z,100.00
2024-03-07T22:31:10.490Z,100.00
2024-03-07T22:33:38.198Z,100.00
2024-03-07T22:36:11.416Z,100.00
2024-03-07T22:38:37.993Z,100.00
2024-03-07T22:41:07.711Z,100.00
2024-03-07T22:43:34.375Z,100.00
2024-03-07T22:46:00.875Z,100.00
2024-03-07T22:48:27.465Z,100.00
2024-03-07T22:50:54.017Z,100.00
2024-03-07T22:53:20.564Z,100.00
2024-03-07T22:55:47.951Z,100.00
2024-03-07T22:58:14.555Z,100.00
2024-03-07T23:00:45.644Z,100.00
2024-03-07T23:03:15.584Z,100.00
2024-03-07T23:05:42.623Z,100.00
2024-03-07T23:08:09.160Z,100.00
2024-03-07T23:10:35.708Z,100.00
2024-03-07T23:13:02.776Z,100.00
2024-03-07T23:15:30.070Z,100.00
2024-03-07T23:17:58.758Z,100.00
2024-03-07T23:20:27.327Z,100.00
2024-03-07T23:22:57.044Z,100.00
2024-03-07T23:25:24.583Z,100.00
2024-03-07T23:27:52.776Z,100.00
2024-03-07T23:30:19.447Z,100.00
2024-03-07T23:32:51.052Z,100.00
2024-03-07T23:35:18.500Z,100.00
2024-03-07T23:37:46.141Z,100.00
2024-03-07T23:40:14.549Z,100.00
2024-03-07T23:42:42.360Z,100.00
2024-03-07T23:45:10.521Z,100.00
2024-03-07T23:47:37.643Z,100.00
2024-03-07T23:50:05.387Z,100.00
2024-03-07T23:52:31.876Z,100.00
2024-03-07T23:54:58.395Z,100.00
2024-03-07T23:57:25.021Z,100.00
2024-03-07T23:59:51.565Z,100.00
